Queenstown, Maryland
Current Conditions -  °F | °C
As of 6:50 PM on Friday 21 Nov 2014 (Local Time) from KESN Reporting Station
Clear Clear  
Wind Chill: 32°   Ceiling: Unl
Heat Index: 32°   Visibility: 10mi
Dew Point: 12°   Wind: 0mph
Humidity: 44%   Direction: NA
Pressure: 30.58"   Gusts: NA
Location:  38.99°N, 76.16°W
Report Text: KESN 212350Z 00000KT 10SM SKC 00/M11 A3058
Loading
Personal Weather Stations






























Interactive Weather Map New forecast layout! Learn more

10-Day Weather Forecast

Advertisements
Track Severe Weather on mobile